Time;durP1;ratioP1;P1;durP2;ratioP2;P2;SDS_P1;SDS_P2;PMS_P1;PMS_P2;Temp;Humidity;BMP_temperature;BMP_pressure;BME280_temperature;BME280_humidity;BME280_pressure;Samples;Min_cycle;Max_cycle;Signal;HPM_P1;HPM_P2
2022/07/11 00:00:59;;;;;;;;;3.50;3.00;;;;;23.15;43.59;101858.53;4865826;29;49420;-68
2022/07/11 00:03:24;;;;;;;;;3.75;2.00;;;;;23.21;43.86;101858.13;4866860;29;45413;-68
2022/07/11 00:05:49;;;;;;;;;2.00;2.00;;;;;23.17;43.76;101859.31;4866668;29;45420;-68
2022/07/11 00:08:15;;;;;;;;;3.00;3.00;;;;;23.13;43.52;101855.03;4861193;29;45529;-68
2022/07/11 00:10:41;;;;;;;;;3.75;2.75;;;;;23.07;43.92;101850.91;4862775;29;45261;-68
2022/07/11 00:13:06;;;;;;;;;1.75;1.75;;;;;23.06;43.59;101854.59;4866645;29;45349;-68
2022/07/11 00:15:31;;;;;;;;;3.50;3.00;;;;;23.09;44.13;101858.97;4866272;29;45348;-68
2022/07/11 00:17:57;;;;;;;;;3.25;2.25;;;;;23.00;43.45;101860.41;4864270;29;46062;-68
2022/07/11 00:20:22;;;;;;;;;1.25;1.25;;;;;23.01;43.59;101862.16;4866056;29;45639;-68
2022/07/11 00:22:47;;;;;;;;;2.50;2.50;;;;;23.01;43.60;101862.16;4863592;29;45279;-68
2022/07/11 00:25:13;;;;;;;;;2.25;2.25;;;;;23.01;44.12;101861.31;4865975;29;45457;-68
2022/07/11 00:27:38;;;;;;;;;4.00;2.00;;;;;23.00;44.13;101857.69;4864326;29;53292;-68
2022/07/11 00:30:04;;;;;;;;;2.00;1.75;;;;;22.99;43.84;101863.22;4849155;29;45288;-68
2022/07/11 00:32:29;;;;;;;;;0.00;0.00;;;;;22.94;44.32;101861.72;4831471;29;45346;-68
2022/07/11 00:34:54;;;;;;;;;3.00;3.00;;;;;22.93;44.13;101862.66;4867581;29;45562;-68
2022/07/11 00:37:20;;;;;;;;;2.00;2.00;;;;;22.93;43.99;101868.13;4866336;29;50737;-68
2022/07/11 00:39:45;;;;;;;;;1.00;1.00;;;;;22.94;44.29;101867.16;4861382;29;45439;-68
2022/07/11 00:42:10;;;;;;;;;2.00;2.00;;;;;22.89;44.35;101854.84;4864565;29;45432;-68
2022/07/11 00:44:38;;;;;;;;;2.00;2.00;;;;;22.91;44.09;101864.63;4864850;29;45406;-68
2022/07/11 00:47:04;;;;;;;;;1.00;1.00;;;;;22.87;44.33;101854.03;4866086;29;45504;-67
2022/07/11 00:49:29;;;;;;;;;0.75;0.75;;;;;22.87;44.43;101852.22;4861713;29;45397;-67
2022/07/11 00:51:54;;;;;;;;;1.50;0.00;;;;;22.92;44.65;101858.22;4865547;29;45312;-67
2022/07/11 00:54:22;;;;;;;;;2.00;2.00;;;;;22.92;44.40;101851.88;4866013;29;45229;-67
2022/07/11 00:56:47;;;;;;;;;2.00;2.00;;;;;22.92;44.45;101843.72;4864732;29;46252;-67
2022/07/11 00:59:16;;;;;;;;;2.00;2.00;;;;;22.92;44.33;101838.28;4861016;29;45530;-67
2022/07/11 01:01:42;;;;;;;;;1.00;1.00;;;;;22.87;44.27;101841.31;4866142;29;45383;-68
2022/07/11 01:04:07;;;;;;;;;1.00;1.00;;;;;22.85;44.41;101840.53;4861808;29;45468;-68
2022/07/11 01:06:32;;;;;;;;;2.00;2.00;;;;;22.81;44.45;101846.31;4865666;29;46106;-68
2022/07/11 01:08:58;;;;;;;;;3.00;3.00;;;;;22.73;44.19;101836.78;4865624;29;45329;-68
2022/07/11 01:11:25;;;;;;;;;2.00;1.00;;;;;22.66;44.19;101827.28;4866753;29;45663;-68
2022/07/11 01:13:50;;;;;;;;;2.00;2.00;;;;;22.65;44.42;101835.53;4866795;29;45227;-68
2022/07/11 01:16:18;;;;;;;;;3.00;3.00;;;;;22.67;44.90;101830.88;4863064;29;46868;-68
2022/07/11 01:18:51;;;;;;;;;2.00;2.00;;;;;22.64;44.40;101828.38;4865410;29;45479;-68
2022/07/11 01:21:32;;;;;;;;;2.00;2.00;;;;;22.67;44.62;101839.03;4865864;29;45281;-68
2022/07/11 01:24:01;;;;;;;;;2.25;2.00;;;;;22.62;44.76;101833.91;4864551;29;45293;-68
2022/07/11 01:26:28;;;;;;;;;2.75;2.25;;;;;22.58;44.67;101827.78;4862576;29;45383;-68
2022/07/11 01:28:57;;;;;;;;;2.00;2.00;;;;;22.55;44.51;101832.56;4844657;29;45664;-68
2022/07/11 01:31:22;;;;;;;;;1.00;1.00;;;;;22.54;44.64;101837.13;4867842;29;45328;-68
2022/07/11 01:33:48;;;;;;;;;2.00;1.75;;;;;22.53;45.18;101835.38;4864772;29;45373;-68
2022/07/11 01:36:13;;;;;;;;;1.00;1.00;;;;;22.53;45.11;101834.50;4868135;29;46224;-68
2022/07/11 01:38:39;;;;;;;;;2.00;2.00;;;;;22.48;44.73;101829.38;4863216;29;45360;-68
2022/07/11 01:41:05;;;;;;;;;2.00;1.00;;;;;22.51;44.72;101834.63;4861367;29;45352;-68
2022/07/11 01:43:30;;;;;;;;;1.25;1.25;;;;;22.48;45.28;101834.81;4869175;29;45257;-68
2022/07/11 01:45:56;;;;;;;;;2.00;2.00;;;;;22.35;45.43;101820.25;4864010;29;45694;-68
2022/07/11 01:48:22;;;;;;;;;2.00;2.00;;;;;22.37;45.11;101829.22;4865142;29;45437;-68
2022/07/11 01:50:49;;;;;;;;;2.50;2.50;;;;;22.32;45.55;101829.50;4865541;29;45477;-68
2022/07/11 01:53:15;;;;;;;;;2.00;1.25;;;;;22.32;44.89;101828.63;4864325;29;45515;-68
2022/07/11 01:55:41;;;;;;;;;1.00;1.00;;;;;22.28;45.02;101835.22;4859438;29;45322;-68
2022/07/11 01:58:06;;;;;;;;;1.75;1.75;;;;;22.26;45.59;101831.72;4859725;29;45460;-68
2022/07/11 02:00:32;;;;;;;;;1.00;1.00;;;;;22.28;45.55;101824.31;4853973;29;45402;-68
2022/07/11 02:02:57;;;;;;;;;1.00;1.00;;;;;22.30;45.39;101826.03;4865351;29;45298;-68
2022/07/11 02:05:23;;;;;;;;;2.00;2.00;;;;;22.33;45.74;101825.78;4855124;29;46336;-68
2022/07/11 02:10:32;;;;;;;;;1.00;1.00;;;;;22.32;45.35;101823.19;4856300;29;45484;-68
2022/07/11 02:12:59;;;;;;;;;1.50;1.50;;;;;22.30;45.39;101833.28;4873276;29;45300;-68
2022/07/11 02:15:26;;;;;;;;;2.75;2.00;;;;;22.24;45.36;101826.38;4863542;29;46070;-68
2022/07/11 02:17:51;;;;;;;;;1.00;1.00;;;;;22.22;45.26;101822.91;4857607;29;45256;-68
2022/07/11 02:20:20;;;;;;;;;2.00;2.00;;;;;22.27;45.13;101834.34;4865324;29;45281;-68
2022/07/11 02:22:46;;;;;;;;;1.25;1.00;;;;;22.19;45.60;101834.81;4863346;29;45374;-68
2022/07/11 02:25:12;;;;;;;;;2.00;2.00;;;;;22.16;45.51;101823.28;4863493;29;45464;-68
2022/07/11 02:27:37;;;;;;;;;1.25;1.25;;;;;22.20;45.48;101836.59;4864183;29;45515;-68
2022/07/11 02:30:02;;;;;;;;;2.00;2.00;;;;;22.24;45.59;101839.97;4845151;29;45651;-68
2022/07/11 02:32:28;;;;;;;;;1.00;1.00;;;;;22.24;45.57;101839.97;4864563;29;45559;-68
2022/07/11 02:34:53;;;;;;;;;1.00;1.00;;;;;22.22;45.66;101831.06;4864606;29;53496;-68
2022/07/11 02:37:19;;;;;;;;;1.25;1.25;;;;;22.21;45.71;101835.59;4864656;29;45264;-68
2022/07/11 02:39:45;;;;;;;;;0.25;0.25;;;;;22.19;46.08;101823.94;4861287;29;45340;-68
2022/07/11 02:42:11;;;;;;;;;1.00;1.00;;;;;22.21;45.40;101832.00;4863020;29;45337;-68
2022/07/11 02:44:36;;;;;;;;;1.25;1.25;;;;;22.21;45.55;101827.44;4863766;29;46264;-68
2022/07/11 02:47:02;;;;;;;;;1.00;1.00;;;;;22.16;45.56;101821.41;4864505;29;45672;-68
2022/07/11 02:49:28;;;;;;;;;1.00;1.00;;;;;22.20;45.83;101828.44;4869578;29;45548;-68
2022/07/11 02:51:53;;;;;;;;;1.00;1.00;;;;;22.18;45.33;101832.19;4867723;29;45373;-68
2022/07/11 02:54:19;;;;;;;;;1.75;1.75;;;;;22.14;45.82;101836.97;4866906;29;45468;-68
2022/07/11 02:56:44;;;;;;;;;3.25;2.00;;;;;22.16;45.48;101834.16;4861820;29;45284;-68
2022/07/11 02:59:10;;;;;;;;;1.50;1.25;;;;;22.16;46.02;101834.16;4865646;29;45864;-68
2022/07/11 03:01:35;;;;;;;;;2.00;2.00;;;;;22.17;45.65;101830.47;4867722;29;45465;-68
2022/07/11 03:04:01;;;;;;;;;1.00;1.00;;;;;22.12;45.70;101824.44;4867748;29;45370;-68
2022/07/11 03:06:26;;;;;;;;;1.00;1.00;;;;;22.15;46.14;101826.97;4867420;29;47911;-68
2022/07/11 03:08:51;;;;;;;;;2.00;2.00;;;;;22.14;45.53;101831.53;4867904;29;45353;-68
2022/07/11 03:11:16;;;;;;;;;2.00;1.25;;;;;22.14;45.93;101831.53;4867513;29;45467;-68
2022/07/11 03:13:42;;;;;;;;;1.75;1.00;;;;;22.14;46.23;101828.81;4865970;29;56100;-68
2022/07/11 03:16:07;;;;;;;;;1.00;1.00;;;;;22.11;45.98;101815.41;4867164;29;45333;-68
2022/07/11 03:18:32;;;;;;;;;3.00;2.00;;;;;22.11;46.03;101817.25;4867571;29;45357;-68
2022/07/11 03:20:58;;;;;;;;;1.50;1.50;;;;;22.06;46.23;101814.84;4867695;29;45400;-68
2022/07/11 03:23:23;;;;;;;;;2.00;2.00;;;;;22.03;46.31;101809.59;4865679;29;45919;-68
2022/07/11 03:25:48;;;;;;;;;2.00;2.00;;;;;22.01;46.45;101814.25;4867198;29;45132;-68
2022/07/11 03:28:13;;;;;;;;;1.25;1.25;;;;;22.00;46.05;101820.66;4866093;29;45359;-68
2022/07/11 03:30:39;;;;;;;;;3.50;2.00;;;;;21.98;46.62;101828.91;4865628;29;45508;-68
2022/07/11 03:33:04;;;;;;;;;3.00;3.00;;;;;21.98;46.08;101826.19;4866398;29;45298;-68
2022/07/11 03:35:42;;;;;;;;;2.25;2.25;;;;;21.98;45.86;101828.03;4867285;29;45318;-68
2022/07/11 03:38:08;;;;;;;;;3.25;2.25;;;;;21.98;46.27;101825.31;4867039;29;45234;-68
2022/07/11 03:40:34;;;;;;;;;3.25;2.25;;;;;21.95;46.53;101820.06;4863334;29;45406;-68
2022/07/11 03:42:59;;;;;;;;;1.75;1.75;;;;;22.00;46.70;101823.38;4865093;29;46090;-68
2022/07/11 03:45:25;;;;;;;;;3.00;2.00;;;;;21.95;46.30;101820.97;4858554;29;45394;-68
2022/07/11 03:47:50;;;;;;;;;2.00;2.00;;;;;22.00;46.33;101832.41;4858015;29;47896;-68
2022/07/11 03:50:16;;;;;;;;;2.75;2.00;;;;;22.02;46.26;101829.59;4849627;29;56538;-68
2022/07/11 03:52:42;;;;;;;;;2.00;2.00;;;;;22.00;46.13;101824.25;4865537;29;45440;-68
2022/07/11 03:55:08;;;;;;;;;2.50;2.50;;;;;22.01;46.74;101825.13;4866661;29;45380;-68
2022/07/11 03:57:33;;;;;;;;;3.00;3.00;;;;;21.98;46.72;101828.03;4863431;29;45333;-68
2022/07/11 03:59:59;;;;;;;;;2.50;2.50;;;;;21.98;46.33;101828.91;4866617;29;45395;-68
2022/07/11 04:02:25;;;;;;;;;3.75;2.25;;;;;21.92;46.33;101818.44;4863708;29;47022;-68
2022/07/11 04:04:50;;;;;;;;;3.25;3.25;;;;;21.96;46.95;101827.25;4866446;29;45293;-68
2022/07/11 04:07:15;;;;;;;;;3.00;3.00;;;;;21.95;46.85;101833.66;4866967;29;45207;-68
2022/07/11 04:09:41;;;;;;;;;2.00;2.00;;;;;21.95;46.37;101825.50;4867041;29;45436;-68
2022/07/11 04:12:06;;;;;;;;;2.50;2.50;;;;;21.95;46.34;101823.69;4866535;29;46115;-68
2022/07/11 04:14:32;;;;;;;;;4.50;3.00;;;;;21.93;46.95;101824.75;4866592;29;45231;-68
2022/07/11 04:16:57;;;;;;;;;2.00;2.00;;;;;21.93;46.17;101822.03;4866600;29;45437;-68
2022/07/11 04:19:23;;;;;;;;;2.00;2.00;;;;;21.92;46.83;101818.44;4866892;29;46692;-68
2022/07/11 04:21:49;;;;;;;;;1.25;1.25;;;;;21.89;46.99;101817.75;4863922;29;47103;-68
2022/07/11 04:24:14;;;;;;;;;2.00;2.00;;;;;21.82;46.69;101820.00;4848722;29;45521;-68
2022/07/11 04:26:40;;;;;;;;;2.75;2.75;;;;;21.85;47.14;101819.78;4864756;29;45384;-68
2022/07/11 04:29:05;;;;;;;;;2.00;1.25;;;;;21.81;47.16;101824.53;4866331;29;45452;-68
2022/07/11 04:31:31;;;;;;;;;3.00;2.50;;;;;21.75;46.69;101815.88;4866134;29;45447;-68
2022/07/11 04:33:56;;;;;;;;;3.25;2.00;;;;;21.79;46.96;101828.34;4866808;29;45357;-68
2022/07/11 04:36:22;;;;;;;;;1.75;1.75;;;;;21.80;46.93;101827.34;4862538;29;45514;-68
2022/07/11 04:38:47;;;;;;;;;2.00;2.00;;;;;21.78;47.30;101823.84;4866489;29;45387;-68
2022/07/11 04:41:12;;;;;;;;;2.00;2.00;;;;;21.77;46.87;101822.13;4854778;29;45535;-68
2022/07/11 04:43:38;;;;;;;;;3.00;3.00;;;;;21.81;46.88;101835.41;4871463;29;51292;-68
2022/07/11 04:46:04;;;;;;;;;2.00;2.00;;;;;21.82;46.65;101844.44;4866909;29;45537;-68
2022/07/11 04:48:30;;;;;;;;;4.00;4.00;;;;;21.81;46.81;101849.00;4866283;29;45447;-68
2022/07/11 04:50:56;;;;;;;;;3.50;3.50;;;;;21.77;47.36;101838.44;4866089;29;45269;-68
2022/07/11 04:53:21;;;;;;;;;2.25;2.25;;;;;21.77;47.27;101847.44;4865256;29;45440;-68
2022/07/11 04:55:46;;;;;;;;;2.00;2.00;;;;;21.70;47.29;101840.66;4865831;29;45227;-68
2022/07/11 04:58:12;;;;;;;;;2.00;2.00;;;;;21.71;47.00;101836.94;4859969;29;45357;-68
2022/07/11 05:00:37;;;;;;;;;3.00;2.00;;;;;21.65;47.88;101835.50;4862917;29;46309;-68
2022/07/11 05:03:03;;;;;;;;;3.50;3.50;;;;;21.68;47.36;101842.56;4865891;29;45369;-68
2022/07/11 05:05:28;;;;;;;;;1.50;1.50;;;;;21.65;47.15;101854.53;4865974;29;45320;-68
2022/07/11 05:07:54;;;;;;;;;3.25;3.25;;;;;21.59;47.72;101846.75;4865574;29;45423;-68
2022/07/11 05:10:19;;;;;;;;;3.00;3.00;;;;;21.60;47.74;101851.22;4869637;29;45420;-64
2022/07/11 05:12:45;;;;;;;;;3.00;2.25;;;;;21.52;47.39;101839.03;4865608;29;45360;-66
2022/07/11 05:15:10;;;;;;;;;2.50;2.50;;;;;21.57;47.96;101851.41;4865395;29;45436;-66
2022/07/11 05:17:36;;;;;;;;;3.00;3.00;;;;;21.57;48.11;101843.25;4865061;29;45376;-66
2022/07/11 05:20:02;;;;;;;;;4.25;3.25;;;;;21.57;47.49;101850.53;4863721;29;45522;-66
2022/07/11 05:22:27;;;;;;;;;3.25;3.25;;;;;21.56;47.70;101851.50;4846650;29;46559;-66
2022/07/11 05:24:53;;;;;;;;;4.25;2.50;;;;;21.58;47.46;101860.41;4863545;29;45526;-68
2022/07/11 05:27:18;;;;;;;;;3.50;3.50;;;;;21.57;48.03;101870.41;4865573;29;45424;-68
2022/07/11 05:29:43;;;;;;;;;4.00;4.00;;;;;21.54;48.25;101873.31;4845981;29;58273;-69
2022/07/11 05:32:10;;;;;;;;;3.25;3.00;;;;;21.49;47.96;101866.44;4862090;29;45586;-68
2022/07/11 05:34:35;;;;;;;;;5.00;3.75;;;;;21.52;47.77;101867.09;4859553;29;45522;-70
2022/07/11 05:37:01;;;;;;;;;3.50;3.50;;;;;21.55;47.80;101877.78;4846875;29;45634;-69
2022/07/11 05:39:26;;;;;;;;;5.00;3.00;;;;;21.58;47.93;101874.88;4843097;29;47037;-69
2022/07/11 05:41:52;;;;;;;;;4.25;4.25;;;;;21.58;48.07;101876.72;4858725;29;53289;-70
2022/07/11 05:44:18;;;;;;;;;2.50;2.00;;;;;21.61;48.02;101873.81;4859034;29;45440;-71
2022/07/11 05:46:45;;;;;;;;;2.00;2.00;;;;;21.61;48.49;101869.25;4860028;29;45391;-70
2022/07/11 05:49:10;;;;;;;;;3.25;3.25;;;;;21.58;48.70;101861.28;4856260;29;45352;-71
2022/07/11 05:51:36;;;;;;;;;3.25;3.25;;;;;21.61;47.74;101852.94;4852918;29;45575;-72
2022/07/11 05:54:02;;;;;;;;;2.00;2.00;;;;;21.65;48.03;101873.53;4846984;29;45469;-72
2022/07/11 05:56:27;;;;;;;;;4.25;4.00;;;;;21.66;47.87;101863.53;4857007;29;45507;-72
2022/07/11 05:58:53;;;;;;;;;5.25;4.25;;;;;21.67;47.93;101869.84;4838593;29;48009;-71
2022/07/11 06:01:18;;;;;;;;;4.75;4.75;;;;;21.70;47.80;101870.56;4861393;29;45587;-72
2022/07/11 06:03:43;;;;;;;;;2.00;2.00;;;;;21.72;48.29;101865.00;4855270;29;45314;-72
2022/07/11 06:06:10;;;;;;;;;3.00;3.00;;;;;21.81;47.71;101876.16;4843024;29;46041;-71
2022/07/11 06:08:42;;;;;;;;;3.00;3.00;;;;;21.81;48.07;101856.28;4864346;29;46594;-71
2022/07/11 06:11:11;;;;;;;;;5.00;5.00;;;;;21.87;48.15;101865.88;4842693;29;46112;-70
2022/07/11 06:13:40;;;;;;;;;4.00;4.00;;;;;21.92;48.34;101869.19;4842886;29;45371;-73
2022/07/11 06:16:07;;;;;;;;;3.00;3.00;;;;;21.94;47.97;101864.56;4859862;29;45631;-74
2022/07/11 06:18:34;;;;;;;;;4.00;4.00;;;;;21.97;47.87;101873.38;4847250;29;47175;-74
2022/07/11 06:20:59;;;;;;;;;3.50;2.00;;;;;22.06;47.84;101873.78;4855651;29;45709;-71
2022/07/11 06:23:24;;;;;;;;;3.00;3.00;;;;;22.11;48.63;101880.66;4859223;29;45248;-73
2022/07/11 06:25:50;;;;;;;;;6.00;4.75;;;;;22.13;47.93;101884.16;4862935;29;51177;-73
2022/07/11 06:28:15;;;;;;;;;4.50;4.00;;;;;22.17;47.84;101883.00;4863425;29;47324;-73
2022/07/11 06:30:40;;;;;;;;;5.00;4.50;;;;;22.18;47.91;101886.59;4866399;29;45458;-72
2022/07/11 06:33:06;;;;;;;;;3.50;3.50;;;;;22.20;47.68;101888.25;4850547;29;45472;-72
2022/07/11 06:35:31;;;;;;;;;3.50;3.50;;;;;22.21;47.88;101886.41;4868116;29;45225;-73
2022/07/11 06:37:57;;;;;;;;;4.00;3.00;;;;;22.17;47.97;101877.56;4864610;29;46100;-71
2022/07/11 06:40:23;;;;;;;;;2.25;2.25;;;;;22.21;48.09;101884.53;4856964;29;45830;-72
2022/07/11 06:42:49;;;;;;;;;5.00;5.00;;;;;22.25;48.00;101881.63;4868325;29;45656;-73
2022/07/11 06:45:15;;;;;;;;;4.00;4.00;;;;;22.27;48.00;101880.56;4867302;29;45845;-73
2022/07/11 06:47:40;;;;;;;;;2.75;2.75;;;;;22.27;48.19;101874.25;4863937;29;45455;-72
2022/07/11 06:50:06;;;;;;;;;2.00;2.00;;;;;22.28;47.82;101874.19;4862861;29;45555;-72
2022/07/11 06:52:32;;;;;;;;;3.25;3.25;;;;;22.26;48.18;101862.50;4853233;29;45472;-73
2022/07/11 06:54:58;;;;;;;;;3.75;3.75;;;;;22.32;47.72;101874.84;4849466;29;45392;-73
2022/07/11 06:57:23;;;;;;;;;3.25;3.25;;;;;22.28;47.66;101873.28;4856995;29;45815;-73
2022/07/11 06:59:49;;;;;;;;;6.00;6.00;;;;;22.26;47.96;101858.91;4865517;29;45329;-72
2022/07/11 07:02:14;;;;;;;;;3.50;3.50;;;;;22.30;47.81;101855.94;4834153;29;46145;-73
2022/07/11 07:04:40;;;;;;;;;4.50;3.25;;;;;22.36;48.33;101870.97;4858626;29;46118;-73
2022/07/11 07:07:05;;;;;;;;;3.00;3.00;;;;;22.44;47.80;101870.50;4861575;29;46141;-72
2022/07/11 07:09:30;;;;;;;;;4.00;3.25;;;;;22.49;47.71;101873.78;4864523;29;45397;-74
2022/07/11 07:11:56;;;;;;;;;7.00;3.25;;;;;22.51;47.51;101869.97;4855158;29;45724;-72
2022/07/11 07:14:21;;;;;;;;;7.00;3.00;;;;;22.57;47.69;101864.16;4861247;29;46493;-72
2022/07/11 07:16:47;;;;;;;;;3.00;3.00;;;;;22.64;47.86;101874.63;4873201;29;47952;-71
2022/07/11 07:19:13;;;;;;;;;2.00;2.00;;;;;22.60;47.40;101856.75;4867327;29;45284;-72
2022/07/11 07:21:38;;;;;;;;;5.00;3.00;;;;;22.67;48.13;101866.25;4856156;29;45184;-69
2022/07/11 07:24:05;;;;;;;;;2.25;2.00;;;;;22.76;47.46;101876.53;4837344;29;45577;-71
2022/07/11 07:26:31;;;;;;;;;1.50;1.50;;;;;22.80;46.90;101883.53;4848107;29;45495;-73
2022/07/11 07:28:57;;;;;;;;;2.00;2.00;;;;;22.84;46.97;101895.97;4850295;29;45379;-72
2022/07/11 07:31:23;;;;;;;;;2.50;2.50;;;;;22.80;46.59;101871.75;4841333;29;45549;-70
2022/07/11 07:33:49;;;;;;;;;1.00;1.00;;;;;22.90;46.74;101878.34;4854554;29;45428;-67
2022/07/11 07:36:15;;;;;;;;;2.00;2.00;;;;;22.97;46.64;101876.97;4860223;29;46970;-68
2022/07/11 07:38:43;;;;;;;;;4.00;2.00;;;;;23.01;46.72;101875.78;4854271;29;45359;-66
2022/07/11 07:41:09;;;;;;;;;2.00;2.00;;;;;23.06;46.47;101880.94;4851343;29;45448;-66
2022/07/11 07:43:35;;;;;;;;;2.50;2.00;;;;;23.10;46.17;101887.94;4863994;29;45470;-67
2022/07/11 07:46:00;;;;;;;;;1.00;1.00;;;;;23.12;46.19;101880.53;4862660;29;48121;-67
2022/07/11 07:48:25;;;;;;;;;2.25;2.25;;;;;23.18;46.51;101887.44;4854247;29;45379;-67
2022/07/11 07:50:51;;;;;;;;;3.50;2.00;;;;;23.25;46.21;101876.00;4848393;29;46458;-68
2022/07/11 07:53:16;;;;;;;;;2.25;2.25;;;;;23.29;46.62;101885.72;4860536;29;53657;-67
2022/07/11 07:55:41;;;;;;;;;3.25;3.00;;;;;23.35;46.02;101870.78;4866281;29;45420;-67
2022/07/11 07:58:07;;;;;;;;;2.00;2.00;;;;;23.44;46.22;101882.94;4872537;29;45604;-67
2022/07/11 08:03:16;;;;;;;;;2.00;2.00;;;;;23.57;45.93;101882.94;4851415;29;45357;-67
2022/07/11 08:05:41;;;;;;;;;3.25;3.25;;;;;23.63;45.57;101886.09;4862097;29;46531;-67
2022/07/11 08:08:07;;;;;;;;;5.00;2.25;;;;;23.66;45.78;101882.31;4858759;29;45535;-67
2022/07/11 08:10:32;;;;;;;;;2.00;2.00;;;;;23.67;45.35;101868.56;4847845;29;45636;-67
2022/07/11 08:12:57;;;;;;;;;3.50;2.00;;;;;23.74;45.82;101879.03;4848223;29;45348;-67
2022/07/11 08:15:23;;;;;;;;;0.00;0.00;;;;;23.78;45.27;101881.44;4859062;29;45543;-67
2022/07/11 08:17:48;;;;;;;;;2.75;2.75;;;;;23.86;45.16;101876.34;4869120;29;45285;-67
2022/07/11 08:20:13;;;;;;;;;2.00;2.00;;;;;23.91;45.78;101876.03;4859392;29;45382;-67
2022/07/11 08:22:39;;;;;;;;;2.25;2.25;;;;;24.01;45.05;101876.25;4857681;29;45495;-67
2022/07/11 08:25:05;;;;;;;;;1.75;1.00;;;;;24.07;44.77;101874.94;4861594;29;45508;-67
2022/07/11 08:27:30;;;;;;;;;2.00;2.00;;;;;24.11;44.90;101871.00;4865634;29;45319;-67
2022/07/11 08:29:56;;;;;;;;;2.50;2.00;;;;;24.13;44.45;101869.91;4860333;29;47044;-68
2022/07/11 08:32:21;;;;;;;;;0.75;0.75;;;;;24.12;44.20;101859.09;4874668;29;45376;-67
2022/07/11 08:34:46;;;;;;;;;0.50;0.50;;;;;24.18;44.76;101858.66;4866581;29;45551;-67
2022/07/11 08:37:12;;;;;;;;;2.00;2.00;;;;;24.22;44.60;101854.72;4863581;29;45559;-67
2022/07/11 08:39:37;;;;;;;;;3.25;3.25;;;;;24.19;44.40;101833.13;4865129;29;45516;-67
2022/07/11 08:42:03;;;;;;;;;2.00;2.00;;;;;24.30;44.13;101843.25;4862379;29;45509;-67
2022/07/11 08:44:28;;;;;;;;;2.00;2.00;;;;;24.28;44.51;101828.88;4868043;29;46061;-67
2022/07/11 08:46:55;;;;;;;;;2.00;2.00;;;;;24.33;44.47;101837.59;4856494;29;45741;-67
2022/07/11 08:49:22;;;;;;;;;2.00;1.25;;;;;24.34;44.47;101837.47;4846576;29;45357;-67
2022/07/11 08:51:48;;;;;;;;;2.00;2.00;;;;;24.35;44.67;101822.81;4852341;29;45484;-67
2022/07/11 08:54:13;;;;;;;;;3.00;3.00;;;;;24.44;44.10;101829.47;4858590;29;46132;-67
2022/07/11 08:56:43;;;;;;;;;2.25;2.25;;;;;24.47;44.63;101826.50;4853325;29;45295;-67
2022/07/11 08:59:09;;;;;;;;;3.00;3.00;;;;;24.53;44.52;101822.47;4859792;29;45690;-67
2022/07/11 09:01:40;;;;;;;;;3.00;3.00;;;;;24.57;44.08;101818.53;4859407;29;45530;-67
2022/07/11 09:04:07;;;;;;;;;2.75;2.75;;;;;24.64;44.83;101818.94;4862467;29;46744;-67
2022/07/11 09:06:32;;;;;;;;;3.00;3.00;;;;;24.70;43.89;101824.81;4862573;29;46532;-67
2022/07/11 09:09:02;;;;;;;;;3.00;3.00;;;;;24.73;43.58;101830.06;4852119;29;45231;-67
2022/07/11 09:11:28;;;;;;;;;2.50;2.50;;;;;24.74;43.65;101826.34;4855634;29;45571;-67
2022/07/11 09:13:53;;;;;;;;;3.00;3.00;;;;;24.73;44.63;101821.00;4854493;29;45499;-66
2022/07/11 09:16:26;;;;;;;;;2.25;2.25;;;;;24.83;44.29;101827.50;4860394;29;45426;-67
2022/07/11 09:18:52;;;;;;;;;3.75;2.75;;;;;24.87;44.22;101826.28;4850854;29;45727;-67
2022/07/11 09:26:50;;;;;;;;;2.75;2.75;;;;;24.93;43.97;101816.75;4854693;29;45600;-67
2022/07/11 09:29:24;;;;;;;;;1.25;1.25;;;;;24.97;43.78;101818.25;4846207;29;45465;-70
2022/07/11 09:31:50;;;;;;;;;2.25;2.25;;;;;25.01;44.15;101817.03;4849945;29;47426;-69
2022/07/11 09:34:17;;;;;;;;;3.00;3.00;;;;;25.04;43.77;101816.81;4850718;29;46362;-70
2022/07/11 09:36:43;;;;;;;;;3.00;3.00;;;;;25.08;44.02;101812.84;4846727;29;45338;-70
2022/07/11 09:39:15;;;;;;;;;3.00;3.00;;;;;25.10;44.34;101805.41;4846815;29;45318;-70
2022/07/11 09:41:41;;;;;;;;;3.25;2.25;;;;;25.14;43.59;101806.03;4855455;29;45153;-70
2022/07/11 09:44:14;;;;;;;;;2.50;2.50;;;;;25.17;44.49;101802.19;4860512;29;46053;-70
2022/07/11 09:46:41;;;;;;;;;2.50;2.50;;;;;25.24;43.67;101800.72;4865140;29;45484;-70
2022/07/11 09:49:07;;;;;;;;;2.50;2.50;;;;;25.25;43.13;101806.06;4849567;29;45327;-70
2022/07/11 09:51:34;;;;;;;;;3.75;2.00;;;;;25.26;43.47;101805.13;4850968;29;45463;-70
2022/07/11 09:54:00;;;;;;;;;1.25;1.25;;;;;25.28;44.16;101802.28;4854104;29;46133;-71
2022/07/11 09:56:33;;;;;;;;;2.50;2.50;;;;;25.32;43.09;101798.28;4864231;29;45711;-70
2022/07/11 09:59:03;;;;;;;;;1.75;1.75;;;;;25.41;43.66;101803.06;4868470;29;45622;-71
2022/07/11 10:01:29;;;;;;;;;3.00;3.00;;;;;25.46;43.10;101811.75;4862295;29;45715;-70
2022/07/11 10:03:56;;;;;;;;;3.00;3.00;;;;;25.47;42.59;101796.22;4852842;29;46258;-70
2022/07/11 10:06:22;;;;;;;;;2.00;2.00;;;;;25.50;42.96;101802.31;4859465;29;45570;-70
2022/07/11 10:08:48;;;;;;;;;4.50;2.50;;;;;25.51;43.25;101790.38;4850946;29;45407;-70
2022/07/11 10:11:14;;;;;;;;;2.00;2.00;;;;;25.62;43.16;101807.81;4860363;29;45599;-70
2022/07/11 10:13:40;;;;;;;;;3.00;3.00;;;;;25.65;43.35;101799.34;4854912;29;45994;-70
2022/07/11 10:16:28;;;;;;;;;3.25;3.00;;;;;25.66;43.49;101790.13;4857468;29;45608;-70
2022/07/11 10:19:32;;;;;;;;;4.00;1.25;;;;;25.74;42.65;101806.81;4862781;29;45637;-70
2022/07/11 10:22:17;;;;;;;;;1.50;1.50;;;;;25.76;42.71;101795.75;4865497;29;45436;-70
2022/07/11 10:24:55;;;;;;;;;2.25;2.25;;;;;25.78;42.58;101800.13;4861153;29;45813;-70
2022/07/11 10:27:39;;;;;;;;;2.00;2.00;;;;;25.77;42.12;101798.38;4853164;29;45404;-70
2022/07/11 10:30:05;;;;;;;;;2.75;2.75;;;;;25.74;42.24;101804.06;4856645;29;45374;-71
2022/07/11 10:32:31;;;;;;;;;3.00;3.00;;;;;25.73;42.60;101796.88;4850836;29;45588;-70
2022/07/11 10:35:09;;;;;;;;;2.25;2.25;;;;;25.80;41.68;101803.59;4848959;29;46224;-70
2022/07/11 10:37:54;;;;;;;;;2.50;2.00;;;;;25.82;41.66;101807.06;4865386;29;45295;-70
2022/07/11 10:40:45;;;;;;;;;2.00;2.00;;;;;25.86;41.85;101803.09;4855709;29;45632;-70
2022/07/11 10:43:10;;;;;;;;;1.25;1.25;;;;;25.93;42.58;101802.59;4868486;29;45419;-70
2022/07/11 10:46:08;;;;;;;;;2.50;2.50;;;;;26.00;41.73;101804.75;4866007;29;46151;-69
2022/07/11 10:48:51;;;;;;;;;2.00;2.00;;;;;26.05;41.89;101805.25;4860306;29;45487;-67
2022/07/11 10:51:24;;;;;;;;;2.00;2.00;;;;;26.11;42.18;101812.09;4865445;29;45504;-68
2022/07/11 10:53:51;;;;;;;;;1.25;1.25;;;;;26.15;42.18;101808.09;4861032;29;46204;-68
2022/07/11 10:56:41;;;;;;;;;2.50;2.50;;;;;26.21;41.59;101812.19;4852951;29;48068;-67
2022/07/11 10:59:17;;;;;;;;;2.00;2.00;;;;;26.28;41.79;101804.34;4852639;29;45636;-67
2022/07/11 11:02:04;;;;;;;;;2.75;2.75;;;;;26.28;41.51;101791.56;4848780;29;45373;-67
2022/07/11 11:04:42;;;;;;;;;4.00;4.00;;;;;26.32;41.53;101789.44;4864466;29;45403;-67
2022/07/11 11:07:30;;;;;;;;;3.00;3.00;;;;;26.39;41.63;101796.13;4837832;29;46187;-67
2022/07/11 11:09:57;;;;;;;;;1.50;0.50;;;;;26.41;41.56;101803.22;4847536;29;45456;-67
2022/07/11 11:13:00;;;;;;;;;2.00;2.00;;;;;26.47;40.84;101801.81;4856438;29;45170;-67
2022/07/11 11:15:46;;;;;;;;;2.25;2.25;;;;;26.48;41.12;101799.94;4862664;29;45453;-67
2022/07/11 11:18:26;;;;;;;;;2.00;2.00;;;;;26.52;41.54;101783.16;4865013;29;46477;-67
2022/07/11 11:20:57;;;;;;;;;1.75;1.75;;;;;26.58;41.22;101774.44;4861250;29;45253;-67
2022/07/11 11:23:24;;;;;;;;;2.00;1.50;;;;;26.60;40.94;101779.78;4841035;29;45621;-67
2022/07/11 11:25:50;;;;;;;;;3.00;2.00;;;;;26.63;40.96;101776.81;4854275;29;46952;-67
2022/07/11 11:28:20;;;;;;;;;2.75;2.75;;;;;26.61;40.63;101759.59;4858027;29;46130;-67
2022/07/11 11:31:01;;;;;;;;;2.75;2.75;;;;;26.70;41.15;101783.50;4852625;29;45523;-67
2022/07/11 11:33:30;;;;;;;;;1.00;1.00;;;;;26.73;40.21;101779.63;4847206;29;45428;-67
2022/07/11 11:35:59;;;;;;;;;1.25;1.00;;;;;26.73;40.72;101772.28;4854756;29;45446;-67